POGODA: Poland

Lotnisko: Warszawa-Okecie

METAR KOD: EPWA


METAR: EPWA 240030Z 13004KT 080V140 CAVOK 13/08 Q1019 NOSIG


BLOK
Pogoda METAR
240030Z
Dzien: 24, Godzina: 00:30 UTC.
13004KT
Wiatr z kierunku 130, o predkosci 7 km/h
080V140
Wiatr zmienny pomiedzy 080 i 140
CAVOK
Widzialnosc pow. 10 km, brak chmur pon. 1500 m., brak CB, brak opadow, burz i innych
13/08
Temperatura: powietrze 13°C, punkt rosy 8°C . Wilgotnosc wzgledna 62 %
Q1019
Cisnienie: 1019 hPa
NOSIG
Pogoda bedzie bez zmian

Pogoda na innym lotnisku

Pogoda Gdansk-Rebiechowo WEATHER Poland  
Pogoda Katowice WEATHER Poland  
Pogoda Krakow WEATHER Poland  
Pogoda Poznan WEATHER Poland  
Pogoda Rzeszow-Jasionka WEATHER Poland  
Pogoda Szczecin WEATHER Poland  
Pogoda Warszawa-Okecie WEATHER Poland  
Pogoda Wroclaw Ii WEATHER Poland  

Pogoda w inny kraju

Strona startowa

(C) by GREGOR 2007
Ogłoszenia Towarzyskie